Quenames — WTU9038 — position and weather

sailwx.info

Track history (hours):
 
Tides and Currents Weather Stations Pressure Air Temp Water Temp Dewpoint Dewpoint Depression Visibility Wind Speed Wind Dir Waves Ship Positions

Quenames

Owner: BOSTON MARINE TRANSPORT INC, Pelham, NH. More information available from US FCC via Universal Licensing System and Coast Guard Vessel Documentation Center.

Last reported at 2017-Nov-18 00:01 UTC. Time now 2017-Nov-18 02:57 UTC.
Position N 40°52' W 073°44'.

Length 23 m; draft 3 m.

Type: Tug. MMSI: 367022790.

Date/timePositionNaut miles runAvg speedWind from/ knotsBaromVisibWave heightAir tempDewpointWater temp
2017-Nov-18 00:01N 40°52' W 073°44'0 6.3
2017-Nov-18 00:00N 40°52' W 073°44'3 6.7
2017-Nov-17 23:29N 40°50' W 073°47'3 5.8
2017-Nov-17 23:00N 40°48' W 073°50'4 7.6
2017-Nov-17 22:29N 40°47' W 073°55'4 8.8
2017-Nov-17 22:01N 40°44' W 073°58'4 7.3
2017-Nov-17 21:31N 40°41' W 074°01'3 5.6
2017-Nov-17 21:01N 40°40' W 074°04'2 4.6
2017-Nov-17 20:30N 40°39' W 074°07'3 5.0
2017-Nov-17 20:00N 40°39' W 074°10'3 5.0
2017-Nov-17 19:30N 40°37' W 074°12'3 5.3
2017-Nov-17 19:00N 40°34' W 074°13'2 2.8
2017-Nov-17 18:16N 40°33' W 074°15'0 0.6
2017-Nov-17 18:00N 40°33' W 074°15'1 0.6
2017-Nov-17 16:47N 40°32' W 074°15'1 0.2
2017-Nov-17 13:31N 40°33' W 074°15'0 4.3
2017-Nov-17 13:29N 40°33' W 074°15'0 0.1
2017-Nov-17 12:59N 40°33' W 074°15'0 0.0
2017-Nov-17 12:31N 40°33' W 074°15'0 0.0
2017-Nov-17 11:58N 40°33' W 074°15'0 0.0
2017-Nov-17 11:29N 40°33' W 074°15'0 0.0
2017-Nov-17 10:54N 40°33' W 074°15'0 0.0
2017-Nov-17 10:26N 40°33' W 074°15'0 0.0
2017-Nov-17 09:59N 40°33' W 074°15'0 0.0
2017-Nov-17 09:28N 40°33' W 074°15'0 0.0
2017-Nov-17 08:56N 40°33' W 074°15'0 0.0
2017-Nov-17 08:30N 40°33' W 074°15'0 0.0
2017-Nov-17 08:00N 40°33' W 074°15'0 0.0
2017-Nov-17 07:28N 40°33' W 074°15'0 0.0
2017-Nov-17 07:00N 40°33' W 074°15'0 0.0
2017-Nov-17 06:30N 40°33' W 074°15'3 5.8
2017-Nov-17 05:57N 40°35' W 074°12'4 8.6
2017-Nov-17 05:30N 40°39' W 074°10'2 4.9
2017-Nov-17 05:00N 40°39' W 074°07'0 0.0
2017-Nov-17 04:30N 40°39' W 074°07'0 0.0
2017-Nov-17 04:00N 40°39' W 074°07'0 0.0
2017-Nov-17 03:30N 40°39' W 074°07'0 0.0
2017-Nov-17 03:00N 40°39' W 074°07'0 0.0
2017-Nov-17 02:30N 40°39' W 074°07'0 0.0
2017-Nov-17 02:00N 40°39' W 074°07'0 0.0
2017-Nov-17 01:30N 40°39' W 074°07'3 6.8
2017-Nov-17 01:00N 40°39' W 074°11'5 8.4
2017-Nov-17 00:24N 40°34' W 074°13'2 3.0
2017-Nov-16 23:48N 40°33' W 074°15'3 4.2
2017-Nov-16 23:08N 40°35' W 074°13'1 7.3
2017-Nov-16 23:00N 40°36' W 074°12'3 6.3
2017-Nov-16 22:30N 40°39' W 074°10'4 7.1
2017-Nov-16 22:00N 40°39' W 074°06'3 5.8
2017-Nov-16 21:31N 40°40' W 074°03'3 6.2
2017-Nov-16 21:00N 40°42' W 073°59'3 5.6
2017-Nov-16 20:31N 40°45' W 073°58'3 6.4
2017-Nov-16 19:59N 40°47' W 073°55'2 4.3
2017-Nov-16 19:30N 40°48' W 073°52'3 6.6
2017-Nov-16 19:00N 40°48' W 073°48'5 0.2
2017-Nov-15 20:41N 40°52' W 073°44'2 7.1
2017-Nov-15 20:28N 40°51' W 073°45'3 7.2
2017-Nov-15 20:00N 40°48' W 073°47'4 7.3
2017-Nov-15 19:30N 40°48' W 073°52'3 5.9
2017-Nov-15 19:00N 40°47' W 073°56'3 5.8
2017-Nov-15 18:31N 40°45' W 073°58'2 4.6
2017-Nov-15 18:01N 40°42' W 073°59'2 4.9
2017-Nov-15 17:30N 40°40' W 074°01'2 3.0
2017-Nov-15 17:01N 40°39' W 074°02'0 0.0
2017-Nov-15 16:30N 40°39' W 074°02'0 0.0
2017-Nov-15 16:01N 40°39' W 074°02'0 0.0
2017-Nov-15 15:31N 40°39' W 074°02'0 0.0
2017-Nov-15 15:01N 40°39' W 074°02'0 0.0
2017-Nov-15 14:30N 40°39' W 074°02'0 1.0
2017-Nov-15 14:00N 40°39' W 074°03'3 6.7
2017-Nov-15 13:30N 40°39' W 074°07'3 6.4
2017-Nov-15 13:00N 40°38' W 074°12'3 5.6
2017-Nov-15 12:30N 40°36' W 074°12'3 5.0
2017-Nov-15 11:58N 40°33' W 074°14'1 0.1
2017-Nov-14 22:00N 40°33' W 074°15'0 0.4
2017-Nov-14 21:19N 40°33' W 074°15'1 1.6
2017-Nov-14 20:40N 40°32' W 074°15'1 0.2
2017-Nov-14 14:20N 40°33' W 074°15'0 0.0
2017-Nov-14 13:50N 40°33' W 074°15'0 0.0
2017-Nov-14 13:24N 40°33' W 074°15'0 0.0
2017-Nov-14 13:00N 40°33' W 074°15'0 0.0
2017-Nov-14 12:29N 40°33' W 074°15'0 0.0
2017-Nov-14 12:00N 40°33' W 074°15'0 0.0
2017-Nov-14 11:29N 40°33' W 074°15'0 0.0
2017-Nov-14 11:00N 40°33' W 074°15'0 0.0
2017-Nov-14 10:30N 40°33' W 074°15'0 0.0
2017-Nov-14 10:00N 40°33' W 074°15'0 0.0
2017-Nov-14 09:30N 40°33' W 074°15'0 0.0
2017-Nov-14 09:00N 40°33' W 074°15'0 0.0
2017-Nov-14 08:30N 40°33' W 074°15'0 0.0
2017-Nov-14 08:00N 40°33' W 074°15'0 0.0
2017-Nov-14 07:30N 40°33' W 074°15'2 2.9
2017-Nov-14 06:46N 40°34' W 074°13'2 7.1
2017-Nov-14 06:30N 40°36' W 074°12'3 5.7
2017-Nov-14 06:00N 40°39' W 074°10'4 8.8
2017-Nov-14 05:30N 40°39' W 074°05'4 8.3
2017-Nov-14 05:00N 40°42' W 074°01'4 8.7
2017-Nov-14 04:31N 40°45' W 073°57'4 8.6
2017-Nov-14 04:00N 40°48' W 073°53'4 8.4
2017-Nov-14 03:30N 40°48' W 073°47'5 0.2
2017-Nov-12 20:20N 40°52' W 073°44'3 6.8
2017-Nov-12 19:56N 40°50' W 073°46'3 5.7
2017-Nov-12 19:27N 40°48' W 073°49'4 8.0
2017-Nov-12 18:58N 40°48' W 073°54'4 8.5
2017-Nov-12 18:31N 40°45' W 073°58'4 7.4
2017-Nov-12 18:01N 40°42' W 074°00'3 6.4
2017-Nov-12 17:31N 40°40' W 074°03'3 5.2
2017-Nov-12 17:00N 40°39' W 074°07'2 4.6
2017-Nov-12 16:30N 40°39' W 074°10'3 5.1
2017-Nov-12 16:00N 40°37' W 074°12'2 4.1
2017-Nov-12 15:29N 40°35' W 074°13'0 0.0
2017-Nov-12 13:01N 40°35' W 074°13'0 0.0
2017-Nov-12 12:59N 40°35' W 074°13'0 0.0
2017-Nov-12 12:27N 40°35' W 074°13'0 0.0
2017-Nov-12 12:00N 40°35' W 074°13'0 0.0
2017-Nov-12 11:30N 40°35' W 074°13'0 0.0
2017-Nov-12 10:59N 40°35' W 074°13'0 0.0
2017-Nov-12 09:51N 40°35' W 074°13'0 0.0
2017-Nov-12 03:18N 40°35' W 074°13'1 2.6
2017-Nov-12 03:00N 40°34' W 074°13'2 3.7
2017-Nov-12 02:25N 40°33' W 074°15'0 0.0
2017-Nov-12 02:00N 40°33' W 074°15'0 0.0
2017-Nov-12 01:29N 40°33' W 074°15'0 0.0
2017-Nov-12 00:58N 40°33' W 074°15'0 0.0
2017-Nov-12 00:30N 40°33' W 074°15'0 0.0
2017-Nov-12 00:00N 40°33' W 074°15'0 0.0
2017-Nov-11 23:30N 40°33' W 074°15'0 0.0
2017-Nov-11 23:00N 40°33' W 074°15'0 0.0
2017-Nov-11 22:29N 40°33' W 074°15'0 0.0
2017-Nov-11 22:00N 40°33' W 074°15'0 0.0
2017-Nov-11 21:30N 40°33' W 074°15'0 0.0
2017-Nov-11 21:00N 40°33' W 074°15'0 0.0
2017-Nov-11 20:30N 40°33' W 074°15'0 0.9
2017-Nov-11 20:00N 40°33' W 074°15'3 6.3
2017-Nov-11 19:28N 40°35' W 074°12'3 6.8
2017-Nov-11 19:00N 40°38' W 074°11'4 7.1
2017-Nov-11 18:30N 40°39' W 074°07'0 0.7
2017-Nov-11 18:01N 40°39' W 074°06'0 0.0
2017-Nov-11 17:31N 40°39' W 074°06'0 0.0
2017-Nov-11 17:00N 40°39' W 074°06'0 0.0
2017-Nov-11 16:30N 40°39' W 074°06'0 0.0
2017-Nov-11 16:00N 40°39' W 074°06'0 0.0
2017-Nov-11 15:30N 40°39' W 074°06'0 0.0
2017-Nov-11 15:00N 40°39' W 074°06'0 0.0
2017-Nov-11 14:30N 40°39' W 074°06'0 0.0
2017-Nov-11 14:00N 40°39' W 074°06'0 0.0
2017-Nov-11 13:30N 40°39' W 074°06'0 0.0
2017-Nov-11 13:00N 40°39' W 074°06'0 0.0
2017-Nov-11 12:31N 40°39' W 074°06'0 0.0
2017-Nov-11 12:00N 40°39' W 074°06'0 0.0
2017-Nov-11 11:30N 40°39' W 074°06'0 0.0
2017-Nov-11 11:00N 40°39' W 074°06'0 0.0
2017-Nov-11 10:30N 40°39' W 074°06'0 0.0
2017-Nov-11 10:01N 40°39' W 074°06'0 0.0
2017-Nov-11 09:31N 40°39' W 074°06'0 0.0
2017-Nov-11 09:01N 40°39' W 074°06'0 0.0
2017-Nov-11 08:30N 40°39' W 074°06'0 0.0
2017-Nov-11 08:00N 40°39' W 074°06'0 0.0
2017-Nov-11 07:30N 40°39' W 074°06'0 0.0
2017-Nov-11 07:00N 40°39' W 074°06'0 0.0
2017-Nov-11 06:30N 40°39' W 074°06'1 2.8
2017-Nov-11 06:00N 40°39' W 074°05'1 1.3
2017-Nov-11 05:30N 40°40' W 074°04'1 1.5
2017-Nov-11 05:00N 40°39' W 074°05'2 4.8
2017-Nov-11 04:30N 40°39' W 074°08'3 5.0
2017-Nov-11 04:00N 40°39' W 074°11'2 4.3
2017-Nov-11 03:30N 40°37' W 074°12'2 3.1
2017-Nov-11 02:57N 40°35' W 074°12'0 0.0
2017-Nov-10 22:35N 40°35' W 074°12'2 7.5
2017-Nov-10 22:20N 40°33' W 074°14'2 0.2
2017-Nov-10 14:35N 40°32' W 074°15'1 4.6
2017-Nov-10 14:28N 40°32' W 074°15'3 3.9
2017-Nov-10 13:39N 40°35' W 074°13'0 1.4
2017-Nov-10 13:18N 40°35' W 074°13'0 1.2
2017-Nov-10 13:01N 40°34' W 074°13'2 3.8
2017-Nov-10 12:26N 40°33' W 074°15'0 0.7
2017-Nov-10 12:01N 40°33' W 074°15'0 0.0
2017-Nov-10 11:30N 40°33' W 074°15'0 0.1
2017-Nov-10 09:48N 40°33' W 074°15'0 0.0
2017-Nov-10 09:28N 40°33' W 074°15'0 0.0
2017-Nov-10 09:00N 40°33' W 074°15'0 0.0
2017-Nov-10 08:30N 40°33' W 074°15'0 0.0
2017-Nov-10 07:13N 40°33' W 074°15'0 0.0
2017-Nov-10 06:48N 40°33' W 074°15'0 0.0
2017-Nov-10 06:25N 40°33' W 074°15'0 0.0
2017-Nov-10 05:44N 40°33' W 074°15'0 0.0
2017-Nov-10 05:29N 40°33' W 074°15'0 0.0
2017-Nov-10 04:50N 40°33' W 074°15'1 0.3
2017-Nov-10 01:17N 40°32' W 074°15'1 2.9
2017-Nov-10 00:57N 40°33' W 074°15'2 2.9
2017-Nov-10 00:21N 40°34' W 074°13'3 8.3
2017-Nov-10 00:00N 40°37' W 074°12'3 6.5
2017-Nov-09 23:30N 40°39' W 074°09'3 6.4
2017-Nov-09 23:01N 40°39' W 074°05'4 8.7
2017-Nov-09 22:31N 40°43' W 074°01'5 9.7
2017-Nov-09 22:01N 40°47' W 073°60'5 9.2
2017-Nov-09 21:29N 40°52' W 073°57'8 0.4
2017-Nov-09 00:36N 40°60' W 073°53'2 3.7
2017-Nov-09 00:11N 40°58' W 073°54'1 3.7
2017-Nov-08 23:56N 40°57' W 073°54'2 3.8
2017-Nov-08 23:30N 40°56' W 073°55'2 3.8
2017-Nov-08 23:00N 40°54' W 073°55'2 3.7
2017-Nov-08 22:30N 40°52' W 073°56'2 3.7
2017-Nov-08 22:00N 40°51' W 073°57'2 3.9
2017-Nov-08 21:30N 40°49' W 073°58'2 4.3
2017-Nov-08 21:00N 40°47' W 073°59'2 4.9
2017-Nov-08 20:30N 40°45' W 074°01'3 5.2
2017-Nov-08 20:00N 40°42' W 074°01'3 5.1
2017-Nov-08 19:30N 40°40' W 074°04'4 7.1
2017-Nov-08 19:00N 40°39' W 074°08'3 6.3
2017-Nov-08 18:30N 40°38' W 074°12'1 0.9
2017-Nov-08 17:55N 40°38' W 074°12'0 0.0
2017-Nov-08 17:30N 40°38' W 074°12'2 4.1
2017-Nov-08 16:59N 40°35' W 074°12'3 0.3
2017-Nov-08 06:45N 40°33' W 074°15'3 9.3
2017-Nov-08 06:23N 40°35' W 074°12'2 5.7
2017-Nov-08 06:00N 40°38' W 074°12'2 3.7
2017-Nov-08 05:30N 40°39' W 074°10'3 5.4
2017-Nov-08 05:00N 40°39' W 074°07'3 6.7
2017-Nov-08 04:31N 40°39' W 074°03'0 0.5
2017-Nov-08 04:00N 40°39' W 074°02'0 0.0
2017-Nov-08 03:30N 40°39' W 074°02'0 0.1
2017-Nov-08 03:00N 40°39' W 074°03'0 0.0
2017-Nov-08 02:30N 40°39' W 074°03'0 0.1
2017-Nov-08 02:00N 40°39' W 074°02'0 0.1
2017-Nov-08 01:30N 40°39' W 074°02'0 0.0
2017-Nov-08 01:00N 40°39' W 074°02'0 0.0
2017-Nov-08 00:30N 40°39' W 074°02'  
Track history (hours):
 
Tides and Currents Weather Stations Pressure Air Temp Water Temp Dewpoint Dewpoint Depression Visibility Wind Speed Wind Dir Waves Ship Positions

Quenames

Owner: BOSTON MARINE TRANSPORT INC, Pelham, NH. More information available from US FCC via Universal Licensing System and Coast Guard Vessel Documentation Center.

Last reported at 2017-Nov-18 00:01 UTC. Time now 2017-Nov-18 02:57 UTC.
Position N 40°52' W 073°44'.

Length 23 m; draft 3 m.

Type: Tug. MMSI: 367022790.

Date/timePositionNaut miles runAvg speedWind from/ knotsBaromVisibWave heightAir tempDewpointWater temp
2017-Nov-18 00:01N 40°52' W 073°44'0 6.3
2017-Nov-18 00:00N 40°52' W 073°44'3 6.7
2017-Nov-17 23:29N 40°50' W 073°47'3 5.8
2017-Nov-17 23:00N 40°48' W 073°50'4 7.6
2017-Nov-17 22:29N 40°47' W 073°55'4 8.8
2017-Nov-17 22:01N 40°44' W 073°58'4 7.3
2017-Nov-17 21:31N 40°41' W 074°01'3 5.6
2017-Nov-17 21:01N 40°40' W 074°04'2 4.6
2017-Nov-17 20:30N 40°39' W 074°07'3 5.0
2017-Nov-17 20:00N 40°39' W 074°10'3 5.0
2017-Nov-17 19:30N 40°37' W 074°12'3 5.3
2017-Nov-17 19:00N 40°34' W 074°13'2 2.8
2017-Nov-17 18:16N 40°33' W 074°15'0 0.6
2017-Nov-17 18:00N 40°33' W 074°15'1 0.6
2017-Nov-17 16:47N 40°32' W 074°15'1 0.2
2017-Nov-17 13:31N 40°33' W 074°15'0 4.3
2017-Nov-17 13:29N 40°33' W 074°15'0 0.1
2017-Nov-17 12:59N 40°33' W 074°15'0 0.0
2017-Nov-17 12:31N 40°33' W 074°15'0 0.0
2017-Nov-17 11:58N 40°33' W 074°15'0 0.0
2017-Nov-17 11:29N 40°33' W 074°15'0 0.0
2017-Nov-17 10:54N 40°33' W 074°15'0 0.0
2017-Nov-17 10:26N 40°33' W 074°15'0 0.0
2017-Nov-17 09:59N 40°33' W 074°15'0 0.0
2017-Nov-17 09:28N 40°33' W 074°15'0 0.0
2017-Nov-17 08:56N 40°33' W 074°15'0 0.0
2017-Nov-17 08:30N 40°33' W 074°15'0 0.0
2017-Nov-17 08:00N 40°33' W 074°15'0 0.0
2017-Nov-17 07:28N 40°33' W 074°15'0 0.0
2017-Nov-17 07:00N 40°33' W 074°15'0 0.0
2017-Nov-17 06:30N 40°33' W 074°15'3 5.8
2017-Nov-17 05:57N 40°35' W 074°12'4 8.6
2017-Nov-17 05:30N 40°39' W 074°10'2 4.9
2017-Nov-17 05:00N 40°39' W 074°07'0 0.0
2017-Nov-17 04:30N 40°39' W 074°07'0 0.0
2017-Nov-17 04:00N 40°39' W 074°07'0 0.0
2017-Nov-17 03:30N 40°39' W 074°07'0 0.0
2017-Nov-17 03:00N 40°39' W 074°07'0 0.0
2017-Nov-17 02:30N 40°39' W 074°07'0 0.0
2017-Nov-17 02:00N 40°39' W 074°07'0 0.0
2017-Nov-17 01:30N 40°39' W 074°07'3 6.8
2017-Nov-17 01:00N 40°39' W 074°11'5 8.4
2017-Nov-17 00:24N 40°34' W 074°13'2 3.0
2017-Nov-16 23:48N 40°33' W 074°15'3 4.2
2017-Nov-16 23:08N 40°35' W 074°13'1 7.3
2017-Nov-16 23:00N 40°36' W 074°12'3 6.3
2017-Nov-16 22:30N 40°39' W 074°10'4 7.1
2017-Nov-16 22:00N 40°39' W 074°06'3 5.8
2017-Nov-16 21:31N 40°40' W 074°03'3 6.2
2017-Nov-16 21:00N 40°42' W 073°59'3 5.6
2017-Nov-16 20:31N 40°45' W 073°58'3 6.4
2017-Nov-16 19:59N 40°47' W 073°55'2 4.3
2017-Nov-16 19:30N 40°48' W 073°52'3 6.6
2017-Nov-16 19:00N 40°48' W 073°48'5 0.2
2017-Nov-15 20:41N 40°52' W 073°44'2 7.1
2017-Nov-15 20:28N 40°51' W 073°45'3 7.2
2017-Nov-15 20:00N 40°48' W 073°47'4 7.3
2017-Nov-15 19:30N 40°48' W 073°52'3 5.9
2017-Nov-15 19:00N 40°47' W 073°56'3 5.8
2017-Nov-15 18:31N 40°45' W 073°58'2 4.6
2017-Nov-15 18:01N 40°42' W 073°59'2 4.9
2017-Nov-15 17:30N 40°40' W 074°01'2 3.0
2017-Nov-15 17:01N 40°39' W 074°02'0 0.0
2017-Nov-15 16:30N 40°39' W 074°02'0 0.0
2017-Nov-15 16:01N 40°39' W 074°02'0 0.0
2017-Nov-15 15:31N 40°39' W 074°02'0 0.0
2017-Nov-15 15:01N 40°39' W 074°02'0 0.0
2017-Nov-15 14:30N 40°39' W 074°02'0 1.0
2017-Nov-15 14:00N 40°39' W 074°03'3 6.7
2017-Nov-15 13:30N 40°39' W 074°07'3 6.4
2017-Nov-15 13:00N 40°38' W 074°12'3 5.6
2017-Nov-15 12:30N 40°36' W 074°12'3 5.0
2017-Nov-15 11:58N 40°33' W 074°14'1 0.1
2017-Nov-14 22:00N 40°33' W 074°15'0 0.4
2017-Nov-14 21:19N 40°33' W 074°15'1 1.6
2017-Nov-14 20:40N 40°32' W 074°15'1 0.2
2017-Nov-14 14:20N 40°33' W 074°15'0 0.0
2017-Nov-14 13:50N 40°33' W 074°15'0 0.0
2017-Nov-14 13:24N 40°33' W 074°15'0 0.0
2017-Nov-14 13:00N 40°33' W 074°15'0 0.0
2017-Nov-14 12:29N 40°33' W 074°15'0 0.0
2017-Nov-14 12:00N 40°33' W 074°15'0 0.0
2017-Nov-14 11:29N 40°33' W 074°15'0 0.0
2017-Nov-14 11:00N 40°33' W 074°15'0 0.0
2017-Nov-14 10:30N 40°33' W 074°15'0 0.0
2017-Nov-14 10:00N 40°33' W 074°15'0 0.0
2017-Nov-14 09:30N 40°33' W 074°15'0 0.0
2017-Nov-14 09:00N 40°33' W 074°15'0 0.0
2017-Nov-14 08:30N 40°33' W 074°15'0 0.0
2017-Nov-14 08:00N 40°33' W 074°15'0 0.0
2017-Nov-14 07:30N 40°33' W 074°15'2 2.9
2017-Nov-14 06:46N 40°34' W 074°13'2 7.1
2017-Nov-14 06:30N 40°36' W 074°12'3 5.7
2017-Nov-14 06:00N 40°39' W 074°10'4 8.8
2017-Nov-14 05:30N 40°39' W 074°05'4 8.3
2017-Nov-14 05:00N 40°42' W 074°01'4 8.7
2017-Nov-14 04:31N 40°45' W 073°57'4 8.6
2017-Nov-14 04:00N 40°48' W 073°53'4 8.4
2017-Nov-14 03:30N 40°48' W 073°47'5 0.2
2017-Nov-12 20:20N 40°52' W 073°44'3 6.8
2017-Nov-12 19:56N 40°50' W 073°46'3 5.7
2017-Nov-12 19:27N 40°48' W 073°49'4 8.0
2017-Nov-12 18:58N 40°48' W 073°54'4 8.5
2017-Nov-12 18:31N 40°45' W 073°58'4 7.4
2017-Nov-12 18:01N 40°42' W 074°00'3 6.4
2017-Nov-12 17:31N 40°40' W 074°03'3 5.2
2017-Nov-12 17:00N 40°39' W 074°07'2 4.6
2017-Nov-12 16:30N 40°39' W 074°10'3 5.1
2017-Nov-12 16:00N 40°37' W 074°12'2 4.1
2017-Nov-12 15:29N 40°35' W 074°13'0 0.0
2017-Nov-12 13:01N 40°35' W 074°13'0 0.0
2017-Nov-12 12:59N 40°35' W 074°13'0 0.0
2017-Nov-12 12:27N 40°35' W 074°13'0 0.0
2017-Nov-12 12:00N 40°35' W 074°13'0 0.0
2017-Nov-12 11:30N 40°35' W 074°13'0 0.0
2017-Nov-12 10:59N 40°35' W 074°13'0 0.0
2017-Nov-12 09:51N 40°35' W 074°13'0 0.0
2017-Nov-12 03:18N 40°35' W 074°13'1 2.6
2017-Nov-12 03:00N 40°34' W 074°13'2 3.7
2017-Nov-12 02:25N 40°33' W 074°15'0 0.0
2017-Nov-12 02:00N 40°33' W 074°15'0 0.0
2017-Nov-12 01:29N 40°33' W 074°15'0 0.0
2017-Nov-12 00:58N 40°33' W 074°15'0 0.0
2017-Nov-12 00:30N 40°33' W 074°15'0 0.0
2017-Nov-12 00:00N 40°33' W 074°15'0 0.0
2017-Nov-11 23:30N 40°33' W 074°15'0 0.0
2017-Nov-11 23:00N 40°33' W 074°15'0 0.0
2017-Nov-11 22:29N 40°33' W 074°15'0 0.0
2017-Nov-11 22:00N 40°33' W 074°15'0 0.0
2017-Nov-11 21:30N 40°33' W 074°15'0 0.0
2017-Nov-11 21:00N 40°33' W 074°15'0 0.0
2017-Nov-11 20:30N 40°33' W 074°15'0 0.9
2017-Nov-11 20:00N 40°33' W 074°15'3 6.3
2017-Nov-11 19:28N 40°35' W 074°12'3 6.8
2017-Nov-11 19:00N 40°38' W 074°11'4 7.1
2017-Nov-11 18:30N 40°39' W 074°07'0 0.7
2017-Nov-11 18:01N 40°39' W 074°06'0 0.0
2017-Nov-11 17:31N 40°39' W 074°06'0 0.0
2017-Nov-11 17:00N 40°39' W 074°06'0 0.0
2017-Nov-11 16:30N 40°39' W 074°06'0 0.0
2017-Nov-11 16:00N 40°39' W 074°06'0 0.0
2017-Nov-11 15:30N 40°39' W 074°06'0 0.0
2017-Nov-11 15:00N 40°39' W 074°06'0 0.0
2017-Nov-11 14:30N 40°39' W 074°06'0 0.0
2017-Nov-11 14:00N 40°39' W 074°06'0 0.0
2017-Nov-11 13:30N 40°39' W 074°06'0 0.0
2017-Nov-11 13:00N 40°39' W 074°06'0 0.0
2017-Nov-11 12:31N 40°39' W 074°06'0 0.0
2017-Nov-11 12:00N 40°39' W 074°06'0 0.0
2017-Nov-11 11:30N 40°39' W 074°06'0 0.0
2017-Nov-11 11:00N 40°39' W 074°06'0 0.0
2017-Nov-11 10:30N 40°39' W 074°06'0 0.0
2017-Nov-11 10:01N 40°39' W 074°06'0 0.0
2017-Nov-11 09:31N 40°39' W 074°06'0 0.0
2017-Nov-11 09:01N 40°39' W 074°06'0 0.0
2017-Nov-11 08:30N 40°39' W 074°06'0 0.0
2017-Nov-11 08:00N 40°39' W 074°06'0 0.0
2017-Nov-11 07:30N 40°39' W 074°06'0 0.0
2017-Nov-11 07:00N 40°39' W 074°06'0 0.0
2017-Nov-11 06:30N 40°39' W 074°06'1 2.8
2017-Nov-11 06:00N 40°39' W 074°05'1 1.3
2017-Nov-11 05:30N 40°40' W 074°04'1 1.5
2017-Nov-11 05:00N 40°39' W 074°05'2 4.8
2017-Nov-11 04:30N 40°39' W 074°08'3 5.0
2017-Nov-11 04:00N 40°39' W 074°11'2 4.3
2017-Nov-11 03:30N 40°37' W 074°12'2 3.1
2017-Nov-11 02:57N 40°35' W 074°12'0 0.0
2017-Nov-10 22:35N 40°35' W 074°12'2 7.5
2017-Nov-10 22:20N 40°33' W 074°14'2 0.2
2017-Nov-10 14:35N 40°32' W 074°15'1 4.6
2017-Nov-10 14:28N 40°32' W 074°15'3 3.9
2017-Nov-10 13:39N 40°35' W 074°13'0 1.4
2017-Nov-10 13:18N 40°35' W 074°13'0 1.2
2017-Nov-10 13:01N 40°34' W 074°13'2 3.8
2017-Nov-10 12:26N 40°33' W 074°15'0 0.7
2017-Nov-10 12:01N 40°33' W 074°15'0 0.0
2017-Nov-10 11:30N 40°33' W 074°15'0 0.1
2017-Nov-10 09:48N 40°33' W 074°15'0 0.0
2017-Nov-10 09:28N 40°33' W 074°15'0 0.0
2017-Nov-10 09:00N 40°33' W 074°15'0 0.0
2017-Nov-10 08:30N 40°33' W 074°15'0 0.0
2017-Nov-10 07:13N 40°33' W 074°15'0 0.0
2017-Nov-10 06:48N 40°33' W 074°15'0 0.0
2017-Nov-10 06:25N 40°33' W 074°15'0 0.0
2017-Nov-10 05:44N 40°33' W 074°15'0 0.0
2017-Nov-10 05:29N 40°33' W 074°15'0 0.0
2017-Nov-10 04:50N 40°33' W 074°15'1 0.3
2017-Nov-10 01:17N 40°32' W 074°15'1 2.9
2017-Nov-10 00:57N 40°33' W 074°15'2 2.9
2017-Nov-10 00:21N 40°34' W 074°13'3 8.3
2017-Nov-10 00:00N 40°37' W 074°12'3 6.5
2017-Nov-09 23:30N 40°39' W 074°09'3 6.4
2017-Nov-09 23:01N 40°39' W 074°05'4 8.7
2017-Nov-09 22:31N 40°43' W 074°01'5 9.7
2017-Nov-09 22:01N 40°47' W 073°60'5 9.2
2017-Nov-09 21:29N 40°52' W 073°57'8 0.4
2017-Nov-09 00:36N 40°60' W 073°53'2 3.7
2017-Nov-09 00:11N 40°58' W 073°54'1 3.7
2017-Nov-08 23:56N 40°57' W 073°54'2 3.8
2017-Nov-08 23:30N 40°56' W 073°55'2 3.8
2017-Nov-08 23:00N 40°54' W 073°55'2 3.7
2017-Nov-08 22:30N 40°52' W 073°56'2 3.7
2017-Nov-08 22:00N 40°51' W 073°57'2 3.9
2017-Nov-08 21:30N 40°49' W 073°58'2 4.3
2017-Nov-08 21:00N 40°47' W 073°59'2 4.9
2017-Nov-08 20:30N 40°45' W 074°01'3 5.2
2017-Nov-08 20:00N 40°42' W 074°01'3 5.1
2017-Nov-08 19:30N 40°40' W 074°04'4 7.1
2017-Nov-08 19:00N 40°39' W 074°08'3 6.3
2017-Nov-08 18:30N 40°38' W 074°12'1 0.9
2017-Nov-08 17:55N 40°38' W 074°12'0 0.0
2017-Nov-08 17:30N 40°38' W 074°12'2 4.1
2017-Nov-08 16:59N 40°35' W 074°12'3 0.3
2017-Nov-08 06:45N 40°33' W 074°15'3 9.3
2017-Nov-08 06:23N 40°35' W 074°12'2 5.7
2017-Nov-08 06:00N 40°38' W 074°12'2 3.7
2017-Nov-08 05:30N 40°39' W 074°10'3 5.4
2017-Nov-08 05:00N 40°39' W 074°07'3 6.7
2017-Nov-08 04:31N 40°39' W 074°03'0 0.5
2017-Nov-08 04:00N 40°39' W 074°02'0 0.0
2017-Nov-08 03:30N 40°39' W 074°02'0 0.1
2017-Nov-08 03:00N 40°39' W 074°03'0 0.0
2017-Nov-08 02:30N 40°39' W 074°03'0 0.1
2017-Nov-08 02:00N 40°39' W 074°02'0 0.1
2017-Nov-08 01:30N 40°39' W 074°02'0 0.0
2017-Nov-08 01:00N 40°39' W 074°02'0 0.0
2017-Nov-08 00:30N 40°39' W 074°02'  

Dump ship's entire track history